createdAt,value
2023-01-07T00:01:14.761Z,12.75
2023-01-07T00:03:43.392Z,20.27
2023-01-07T00:06:23.164Z,19.90
2023-01-07T00:08:52.381Z,17.13
2023-01-07T00:11:40.549Z,14.90
2023-01-07T00:14:10.135Z,12.00
2023-01-07T00:16:38.537Z,17.10
2023-01-07T00:19:07.834Z,18.55
2023-01-07T00:21:35.410Z,14.32
2023-01-07T00:24:05.389Z,12.38
2023-01-07T00:26:37.979Z,14.98
2023-01-07T00:29:06.570Z,11.85
2023-01-07T00:31:36.804Z,11.25
2023-01-07T00:34:04.290Z,18.77
2023-01-07T00:36:34.276Z,14.90
2023-01-07T00:39:05.512Z,15.63
2023-01-07T00:41:33.041Z,11.45
2023-01-07T00:44:00.897Z,14.68
2023-01-07T00:46:29.684Z,11.90
2023-01-07T00:48:57.665Z,15.05
2023-01-07T00:51:25.432Z,14.80
2023-01-07T00:53:52.913Z,14.65
2023-01-07T00:56:20.445Z,13.65
2023-01-07T00:58:47.967Z,10.05
2023-01-07T01:01:16.363Z,12.43
2023-01-07T01:03:43.992Z,16.15
2023-01-07T01:06:15.176Z,12.52
2023-01-07T01:08:44.379Z,15.25
2023-01-07T01:11:14.073Z,16.75
2023-01-07T01:13:41.887Z,10.52
2023-01-07T01:16:12.075Z,11.88
2023-01-07T01:18:39.858Z,14.88
2023-01-07T01:21:10.626Z,14.52
2023-01-07T01:23:38.654Z,12.57
2023-01-07T01:26:25.475Z,13.57
2023-01-07T01:28:52.883Z,8.80
2023-01-07T01:31:24.224Z,14.25
2023-01-07T01:33:55.264Z,13.88
2023-01-07T01:36:24.173Z,15.18
2023-01-07T01:38:53.593Z,11.25
2023-01-07T01:43:51.653Z,13.95
2023-01-07T01:46:51.997Z,19.75
2023-01-07T01:49:25.660Z,17.95
2023-01-07T01:52:02.770Z,15.10
2023-01-07T01:54:31.429Z,10.35
2023-01-07T01:57:05.545Z,17.23
2023-01-07T01:59:37.933Z,12.27
2023-01-07T02:02:09.224Z,16.10
2023-01-07T02:04:37.404Z,11.85
2023-01-07T02:07:16.943Z,13.45
2023-01-07T02:10:09.220Z,14.13
2023-01-07T02:12:56.469Z,14.85
2023-01-07T02:15:43.881Z,13.25
2023-01-07T02:18:49.033Z,12.32
2023-01-07T02:21:52.225Z,13.80
2023-01-07T02:24:38.842Z,8.80
2023-01-07T02:27:41.574Z,16.63
2023-01-07T02:30:21.378Z,12.82
2023-01-07T02:33:08.769Z,12.73
2023-01-07T02:35:39.021Z,15.43
2023-01-07T02:38:12.392Z,11.45
2023-01-07T02:40:55.318Z,10.93
2023-01-07T02:43:55.435Z,14.57
2023-01-07T02:46:39.910Z,11.45
2023-01-07T02:49:14.327Z,13.82
2023-01-07T02:51:43.288Z,14.00
2023-01-07T02:54:17.181Z,9.55
2023-01-07T02:56:59.201Z,13.88
2023-01-07T02:59:43.638Z,12.48
2023-01-07T03:02:34.304Z,11.77
2023-01-07T03:05:32.470Z,12.90
2023-01-07T03:08:18.020Z,13.38
2023-01-07T03:11:06.378Z,14.18
2023-01-07T03:14:23.172Z,10.68
2023-01-07T03:16:57.685Z,11.82
2023-01-07T03:19:29.353Z,13.88
2023-01-07T03:21:58.963Z,16.55
2023-01-07T03:24:31.521Z,11.80
2023-01-07T03:27:01.983Z,13.40
2023-01-07T03:29:32.352Z,11.35
2023-01-07T03:32:13.308Z,14.35
2023-01-07T03:34:42.737Z,15.77
2023-01-07T03:37:14.306Z,14.73
2023-01-07T03:39:45.714Z,13.43
2023-01-07T03:42:33.979Z,11.27
2023-01-07T03:45:02.215Z,8.02
2023-01-07T03:47:32.843Z,12.55
2023-01-07T03:50:00.305Z,15.35
2023-01-07T03:52:27.977Z,16.75
2023-01-07T03:54:55.576Z,8.52
2023-01-07T03:57:23.195Z,13.93
2023-01-07T03:59:50.679Z,13.77
2023-01-07T04:02:18.168Z,20.25
2023-01-07T04:04:45.793Z,10.18
2023-01-07T04:07:13.854Z,13.07
2023-01-07T04:09:41.552Z,12.48
2023-01-07T04:12:09.944Z,12.07
2023-01-07T04:14:37.491Z,11.23
2023-01-07T04:17:05.373Z,15.50
2023-01-07T04:22:00.829Z,15.82
2023-01-07T04:24:28.345Z,13.07
2023-01-07T04:26:55.906Z,14.70
2023-01-07T04:29:23.505Z,15.70
2023-01-07T04:31:51.253Z,13.95
2023-01-07T04:34:18.699Z,11.82
2023-01-07T04:36:46.309Z,11.85
2023-01-07T04:39:14.020Z,16.58
2023-01-07T04:41:41.471Z,11.00
2023-01-07T04:44:09.365Z,18.33
2023-01-07T04:46:36.905Z,20.48
2023-01-07T04:49:04.803Z,13.20
2023-01-07T04:51:32.642Z,13.75
2023-01-07T04:54:00.447Z,23.65
2023-01-07T04:56:27.928Z,17.55
2023-01-07T04:58:55.717Z,15.63
2023-01-07T05:03:52.968Z,20.85
2023-01-07T05:06:20.897Z,12.88
2023-01-07T05:08:48.938Z,14.60
2023-01-07T05:11:21.482Z,14.18
2023-01-07T05:13:52.251Z,11.80
2023-01-07T05:16:20.751Z,14.05
2023-01-07T05:18:48.545Z,13.02
2023-01-07T05:21:16.101Z,18.25
2023-01-07T05:26:11.688Z,16.48
2023-01-07T05:28:39.169Z,16.75
2023-01-07T05:31:06.993Z,13.85
2023-01-07T05:33:34.919Z,19.00
2023-01-07T05:36:03.716Z,14.82
2023-01-07T05:38:31.669Z,12.80
2023-01-07T05:40:59.168Z,11.85
2023-01-07T05:43:28.400Z,18.48
2023-01-07T05:45:59.243Z,15.38
2023-01-07T05:48:26.762Z,19.13
2023-01-07T05:50:54.280Z,13.30
2023-01-07T05:53:21.705Z,13.57
2023-01-07T05:55:54.959Z,17.63
2023-01-07T05:58:22.380Z,13.98
2023-01-07T06:00:49.880Z,14.45
2023-01-07T06:03:17.380Z,12.95
2023-01-07T06:05:44.991Z,17.27
2023-01-07T06:08:12.425Z,17.92
2023-01-07T06:10:40.479Z,17.80
2023-01-07T06:13:07.952Z,13.05
2023-01-07T06:15:35.661Z,16.08
2023-01-07T06:18:03.236Z,13.10
2023-01-07T06:20:34.496Z,14.40
2023-01-07T06:23:05.113Z,11.68
2023-01-07T06:25:32.660Z,15.48
2023-01-07T06:28:00.073Z,13.48
2023-01-07T06:30:27.569Z,9.65
2023-01-07T06:32:55.177Z,16.58
2023-01-07T06:35:22.701Z,12.63
2023-01-07T06:37:50.203Z,13.70
2023-01-07T06:40:18.226Z,11.60
2023-01-07T06:42:45.687Z,11.85
2023-01-07T06:45:13.360Z,13.80
2023-01-07T06:47:41.205Z,11.90
2023-01-07T06:50:09.219Z,13.48
2023-01-07T06:52:36.799Z,13.13
2023-01-07T06:55:04.858Z,16.73
2023-01-07T06:57:32.632Z,11.18
2023-01-07T07:00:00.052Z,10.13
2023-01-07T07:02:28.930Z,16.65
2023-01-07T07:04:56.606Z,19.13
2023-01-07T07:07:25.418Z,15.00
2023-01-07T07:09:52.888Z,14.95
2023-01-07T07:12:20.367Z,13.38
2023-01-07T07:14:47.888Z,11.38
2023-01-07T07:17:15.439Z,13.55
2023-01-07T07:19:42.897Z,11.10
2023-01-07T07:22:10.316Z,10.93
2023-01-07T07:24:37.763Z,14.57
2023-01-07T07:27:05.297Z,12.70
2023-01-07T07:29:32.783Z,14.10
2023-01-07T07:32:00.228Z,13.60
2023-01-07T07:34:27.935Z,17.17
2023-01-07T07:36:55.357Z,14.20
2023-01-07T07:39:22.787Z,13.88
2023-01-07T07:41:50.314Z,15.15
2023-01-07T07:44:18.901Z,13.00
2023-01-07T07:46:46.365Z,13.93
2023-01-07T07:49:13.870Z,16.63
2023-01-07T07:51:41.292Z,15.00
2023-01-07T07:54:08.771Z,15.48
2023-01-07T07:56:36.248Z,13.65
2023-01-07T07:59:03.956Z,12.10
2023-01-07T08:01:31.916Z,15.38
2023-01-07T08:03:59.395Z,12.15
2023-01-07T08:06:26.831Z,13.18
2023-01-07T08:08:54.266Z,13.98
2023-01-07T08:11:21.699Z,11.60
2023-01-07T08:13:49.153Z,8.85
2023-01-07T08:16:16.608Z,15.13
2023-01-07T08:18:44.080Z,13.48
2023-01-07T08:21:11.508Z,12.30
2023-01-07T08:23:38.942Z,12.27
2023-01-07T08:26:06.493Z,16.60
2023-01-07T08:28:34.735Z,12.45
2023-01-07T08:33:37.664Z,17.13
2023-01-07T08:36:11.901Z,15.05
2023-01-07T08:38:45.740Z,12.38
2023-01-07T08:41:13.284Z,10.93
2023-01-07T08:43:41.867Z,16.52
2023-01-07T08:46:09.303Z,11.82
2023-01-07T08:48:38.891Z,13.45
2023-01-07T08:51:07.151Z,19.13
2023-01-07T08:56:02.024Z,19.48
2023-01-07T08:58:29.557Z,11.68
2023-01-07T09:01:02.615Z,11.00
2023-01-07T09:03:30.092Z,15.40
2023-01-07T09:05:57.546Z,15.15
2023-01-07T09:08:25.332Z,14.43
2023-01-07T09:10:52.773Z,18.10
2023-01-07T09:13:20.219Z,12.18
2023-01-07T09:15:47.695Z,12.77
2023-01-07T09:18:15.124Z,22.10
2023-01-07T09:20:42.504Z,13.45
2023-01-07T09:23:10.083Z,17.95
2023-01-07T09:25:37.691Z,13.52
2023-01-07T09:28:05.083Z,16.02
2023-01-07T09:30:32.788Z,14.52
2023-01-07T09:33:00.400Z,15.90
2023-01-07T09:35:27.997Z,14.48
2023-01-07T09:37:55.549Z,11.13
2023-01-07T09:40:37.657Z,18.08
2023-01-07T09:43:20.958Z,17.35
2023-01-07T09:45:54.605Z,16.77
2023-01-07T09:48:31.153Z,21.05
2023-01-07T09:51:22.333Z,13.50
2023-01-07T09:53:52.529Z,15.77
2023-01-07T09:56:31.422Z,19.58
2023-01-07T09:59:01.010Z,15.32
2023-01-07T10:01:39.239Z,21.92
2023-01-07T10:04:31.120Z,17.95
2023-01-07T10:07:16.823Z,23.17
2023-01-07T10:09:53.659Z,14.52
2023-01-07T10:12:36.527Z,19.17
2023-01-07T10:15:22.374Z,14.10
2023-01-07T10:18:33.255Z,18.63
2023-01-07T10:21:00.787Z,14.57
2023-01-07T10:23:32.921Z,22.00
2023-01-07T10:26:02.220Z,19.77
2023-01-07T10:28:40.075Z,19.80
2023-01-07T10:31:16.608Z,18.58
2023-01-07T10:33:45.886Z,24.63
2023-01-07T10:36:21.303Z,19.42
2023-01-07T10:39:24.314Z,16.38
2023-01-07T10:41:58.156Z,25.77
2023-01-07T10:44:55.651Z,24.50
2023-01-07T10:47:42.404Z,27.75
2023-01-07T10:50:53.858Z,24.98
2023-01-07T10:53:41.565Z,22.30
2023-01-07T10:56:37.387Z,27.27
2023-01-07T10:59:05.395Z,22.02
2023-01-07T11:01:39.259Z,25.77
2023-01-07T11:04:15.212Z,19.45
2023-01-07T11:07:04.292Z,24.60
2023-01-07T11:09:36.780Z,18.23
2023-01-07T11:12:23.380Z,24.83
2023-01-07T11:14:53.452Z,17.55
2023-01-07T11:17:45.838Z,21.30
2023-01-07T11:20:13.429Z,20.67
2023-01-07T11:22:42.967Z,17.80
2023-01-07T11:25:31.314Z,20.67
2023-01-07T11:28:02.046Z,19.20
2023-01-07T11:30:33.062Z,23.10
2023-01-07T11:33:03.623Z,23.35
2023-01-07T11:35:32.022Z,19.48
2023-01-07T11:38:01.424Z,17.35
2023-01-07T11:40:32.074Z,23.50
2023-01-07T11:43:20.468Z,16.30
2023-01-07T11:46:21.162Z,16.50
2023-01-07T11:49:00.710Z,15.18
2023-01-07T11:51:39.808Z,14.05
2023-01-07T11:54:28.633Z,15.45
2023-01-07T11:57:12.242Z,19.00
2023-01-07T11:59:39.697Z,16.23
2023-01-07T12:02:25.542Z,16.17
2023-01-07T12:05:13.168Z,16.98
2023-01-07T12:07:45.884Z,22.25
2023-01-07T12:10:27.944Z,22.63
2023-01-07T12:12:56.059Z,20.00
2023-01-07T12:15:28.297Z,21.52
2023-01-07T12:18:10.306Z,22.30
2023-01-07T12:20:46.732Z,15.38
2023-01-07T12:23:32.180Z,19.13
2023-01-07T12:26:48.361Z,17.50
2023-01-07T12:29:38.658Z,18.52
2023-01-07T12:32:36.421Z,23.42
2023-01-07T12:35:14.267Z,19.92
2023-01-07T12:37:57.340Z,18.85
2023-01-07T12:40:32.068Z,21.75
2023-01-07T12:43:14.725Z,14.77
2023-01-07T12:45:53.521Z,18.73
2023-01-07T12:48:28.991Z,15.10
2023-01-07T12:51:00.949Z,21.33
2023-01-07T12:53:43.716Z,19.45
2023-01-07T12:56:18.609Z,19.95
2023-01-07T12:59:46.850Z,13.90
2023-01-07T13:02:48.600Z,14.20
2023-01-07T13:05:27.766Z,16.13
2023-01-07T13:08:14.215Z,19.90
2023-01-07T13:10:45.563Z,18.50
2023-01-07T13:13:20.598Z,18.15
2023-01-07T13:15:49.203Z,13.60
2023-01-07T13:18:18.936Z,20.58
2023-01-07T13:20:52.418Z,17.35
2023-01-07T13:23:26.016Z,20.33
2023-01-07T13:26:05.257Z,18.77
2023-01-07T13:28:47.774Z,16.35
2023-01-07T13:31:22.210Z,17.45
2023-01-07T13:34:04.314Z,20.55
2023-01-07T13:37:03.598Z,17.98
2023-01-07T13:39:49.117Z,16.08
2023-01-07T13:42:19.384Z,19.00
2023-01-07T13:45:08.448Z,15.25
2023-01-07T13:47:44.861Z,16.88
2023-01-07T13:50:23.833Z,21.23
2023-01-07T13:53:04.009Z,22.48
2023-01-07T13:55:38.094Z,14.88
2023-01-07T13:58:30.379Z,23.00
2023-01-07T14:01:05.894Z,15.95
2023-01-07T14:03:44.132Z,18.17
2023-01-07T14:08:52.861Z,21.17
2023-01-07T14:11:32.481Z,13.60
2023-01-07T14:14:10.373Z,20.77
2023-01-07T14:16:57.082Z,18.98
2023-01-07T14:20:13.300Z,18.83
2023-01-07T14:22:52.433Z,15.98
2023-01-07T14:25:41.576Z,21.20
2023-01-07T14:28:25.971Z,16.13
2023-01-07T14:30:54.352Z,16.90
2023-01-07T14:33:26.371Z,22.10
2023-01-07T14:35:58.099Z,18.75
2023-01-07T14:38:31.454Z,18.20
2023-01-07T14:41:09.256Z,22.23
2023-01-07T14:43:46.109Z,21.02
2023-01-07T14:46:23.081Z,19.65
2023-01-07T14:49:36.873Z,19.27
2023-01-07T14:52:25.327Z,15.00
2023-01-07T14:55:29.982Z,20.38
2023-01-07T14:58:32.987Z,20.10
2023-01-07T15:01:14.964Z,16.42
2023-01-07T15:03:51.458Z,19.20
2023-01-07T15:06:26.900Z,12.55
2023-01-07T15:09:18.263Z,18.00
2023-01-07T15:12:06.154Z,14.65
2023-01-07T15:17:40.520Z,15.68
2023-01-07T15:20:10.287Z,12.20
2023-01-07T15:23:02.428Z,17.33
2023-01-07T15:25:49.572Z,16.80
2023-01-07T15:28:33.403Z,14.35
2023-01-07T15:31:17.194Z,12.57
2023-01-07T15:34:06.553Z,12.88
2023-01-07T15:36:38.496Z,9.18
2023-01-07T15:39:06.180Z,6.32
2023-01-07T15:41:37.486Z,12.30
2023-01-07T15:44:13.203Z,14.38
2023-01-07T15:46:41.247Z,19.45
2023-01-07T15:49:08.667Z,25.63
2023-01-07T15:51:39.853Z,25.73
2023-01-07T15:54:23.375Z,27.40
2023-01-07T15:56:53.995Z,21.15
2023-01-07T15:59:30.973Z,26.42
2023-01-07T16:02:19.660Z,35.70
2023-01-07T16:04:50.146Z,37.95
2023-01-07T16:07:45.815Z,35.88
2023-01-07T16:10:32.324Z,36.70
2023-01-07T16:13:05.388Z,38.10
2023-01-07T16:15:35.816Z,40.88
2023-01-07T16:18:08.976Z,32.33
2023-01-07T16:20:39.333Z,45.05
2023-01-07T16:23:10.077Z,36.25
2023-01-07T16:25:50.051Z,36.30
2023-01-07T16:28:26.872Z,38.00
2023-01-07T16:30:55.549Z,37.95
2023-01-07T16:33:25.935Z,41.03
2023-01-07T16:35:57.658Z,42.20
2023-01-07T16:38:25.837Z,34.00
2023-01-07T16:43:39.122Z,35.47
2023-01-07T16:46:26.774Z,42.42
2023-01-07T16:49:09.970Z,33.65
2023-01-07T16:51:38.943Z,43.47
2023-01-07T16:54:31.897Z,38.33
2023-01-07T16:57:02.325Z,26.65
2023-01-07T16:59:42.364Z,22.95
2023-01-07T17:02:33.559Z,24.20
2023-01-07T17:05:12.844Z,31.38
2023-01-07T17:07:40.970Z,31.23
2023-01-07T17:10:24.873Z,25.02
2023-01-07T17:13:04.147Z,28.50
2023-01-07T17:15:31.530Z,33.38
2023-01-07T17:18:11.317Z,27.70
2023-01-07T17:20:56.636Z,23.85
2023-01-07T17:23:27.275Z,27.38
2023-01-07T17:26:00.530Z,26.70
2023-01-07T17:28:36.006Z,29.52
2023-01-07T17:31:04.231Z,29.00
2023-01-07T17:33:31.878Z,27.00
2023-01-07T17:35:59.606Z,31.65
2023-01-07T17:38:29.140Z,31.73
2023-01-07T17:40:56.703Z,32.08
2023-01-07T17:43:35.195Z,32.60
2023-01-07T17:46:08.955Z,30.98
2023-01-07T17:48:36.848Z,29.85
2023-01-07T17:51:08.212Z,38.28
2023-01-07T17:53:44.540Z,35.17
2023-01-07T17:56:12.147Z,31.70
2023-01-07T17:58:41.305Z,46.53
2023-01-07T18:01:15.001Z,27.65
2023-01-07T18:03:45.965Z,31.65
2023-01-07T18:06:19.099Z,33.97
2023-01-07T18:08:48.320Z,38.67
2023-01-07T18:11:40.236Z,29.25
2023-01-07T18:14:09.503Z,25.20
2023-01-07T18:16:37.118Z,13.13
2023-01-07T18:19:04.728Z,7.60
2023-01-07T18:21:32.599Z,7.35
2023-01-07T18:24:00.216Z,4.72
2023-01-07T18:26:27.678Z,5.15
2023-01-07T18:28:55.123Z,7.13
2023-01-07T18:31:22.777Z,4.45
2023-01-07T18:33:50.313Z,6.80
2023-01-07T18:36:18.409Z,4.75
2023-01-07T18:41:13.353Z,3.05
2023-01-07T18:43:40.770Z,5.03
2023-01-07T18:46:09.617Z,3.55
2023-01-07T18:48:37.311Z,3.30
2023-01-07T18:51:09.858Z,3.42
2023-01-07T18:53:38.261Z,3.30
2023-01-07T18:56:11.398Z,4.72
2023-01-07T18:58:39.681Z,2.35
2023-01-07T19:01:08.581Z,8.00
2023-01-07T19:03:36.964Z,4.18
2023-01-07T19:06:11.438Z,6.43
2023-01-07T19:08:42.190Z,5.25
2023-01-07T19:11:14.743Z,7.68
2023-01-07T19:13:42.317Z,11.27
2023-01-07T19:16:12.516Z,16.00
2023-01-07T19:18:40.642Z,9.57
2023-01-07T19:21:11.314Z,9.25
2023-01-07T19:23:39.136Z,10.68
2023-01-07T19:26:09.095Z,11.18
2023-01-07T19:28:38.506Z,13.50
2023-01-07T19:31:09.316Z,10.10
2023-01-07T19:33:37.375Z,12.75
2023-01-07T19:36:07.802Z,18.33
2023-01-07T19:38:43.564Z,15.75
2023-01-07T19:41:13.449Z,20.33
2023-01-07T19:43:41.178Z,18.23
2023-01-07T19:46:10.560Z,22.02
2023-01-07T19:48:41.636Z,20.85
2023-01-07T19:51:10.215Z,17.83
2023-01-07T19:53:37.913Z,19.52
2023-01-07T19:56:11.142Z,21.35
2023-01-07T19:58:39.778Z,20.90
2023-01-07T20:01:14.391Z,29.33
2023-01-07T20:03:45.417Z,26.02
2023-01-07T20:06:15.936Z,25.60
2023-01-07T20:08:44.365Z,22.15
2023-01-07T20:11:12.690Z,23.73
2023-01-07T20:16:17.257Z,23.85
2023-01-07T20:18:47.648Z,22.67
2023-01-07T20:21:17.553Z,31.83
2023-01-07T20:23:45.426Z,26.27
2023-01-07T20:26:19.365Z,20.58
2023-01-07T20:28:47.086Z,21.10
2023-01-07T20:31:17.378Z,26.45
2023-01-07T20:33:45.263Z,26.10
2023-01-07T20:36:32.859Z,22.13
2023-01-07T20:39:05.863Z,27.17
2023-01-07T20:41:35.440Z,29.90
2023-01-07T20:44:08.728Z,22.48
2023-01-07T20:46:38.942Z,21.17
2023-01-07T20:49:07.047Z,27.58
2023-01-07T20:51:34.526Z,29.80
2023-01-07T20:54:02.339Z,30.38
2023-01-07T20:56:32.413Z,30.50
2023-01-07T20:59:01.222Z,26.58
2023-01-07T21:01:29.606Z,45.60
2023-01-07T21:03:57.427Z,30.80
2023-01-07T21:06:25.165Z,31.45
2023-01-07T21:08:52.752Z,30.45
2023-01-07T21:11:21.718Z,36.17
2023-01-07T21:13:50.715Z,33.83
2023-01-07T21:16:18.978Z,26.33
2023-01-07T21:18:47.024Z,32.20
2023-01-07T21:21:17.298Z,32.95
2023-01-07T21:23:46.873Z,31.27
2023-01-07T21:26:14.922Z,33.53
2023-01-07T21:28:44.339Z,36.17
2023-01-07T21:31:14.025Z,41.97
2023-01-07T21:33:42.333Z,36.67
2023-01-07T21:36:12.401Z,33.13
2023-01-07T21:38:39.999Z,41.78
2023-01-07T21:41:13.263Z,30.00
2023-01-07T21:43:41.559Z,45.35
2023-01-07T21:46:09.741Z,39.38
2023-01-07T21:51:08.733Z,45.42
2023-01-07T21:53:36.985Z,34.75
2023-01-07T21:58:36.986Z,31.80
2023-01-07T22:01:08.347Z,51.78
2023-01-07T22:03:37.138Z,38.80
2023-01-07T22:06:08.148Z,31.60
2023-01-07T22:08:35.782Z,42.75
2023-01-07T22:11:03.429Z,44.90
2023-01-07T22:13:30.891Z,39.10
2023-01-07T22:15:58.421Z,46.35
2023-01-07T22:18:25.942Z,41.53
2023-01-07T22:20:57.253Z,43.63
2023-01-07T22:23:24.773Z,49.53
2023-01-07T22:25:52.306Z,30.45
2023-01-07T22:28:23.360Z,37.60
2023-01-07T22:30:53.213Z,40.63
2023-01-07T22:33:22.515Z,43.15
2023-01-07T22:35:51.382Z,35.63
2023-01-07T22:38:22.632Z,51.45
2023-01-07T22:40:50.865Z,44.20
2023-01-07T22:43:20.185Z,46.20
2023-01-07T22:45:58.156Z,48.10
2023-01-07T22:48:32.194Z,36.88
2023-01-07T22:51:14.422Z,39.70
2023-01-07T22:53:41.916Z,48.17
2023-01-07T22:56:09.356Z,37.13
2023-01-07T22:58:36.821Z,36.20
2023-01-07T23:01:04.457Z,47.80
2023-01-07T23:03:32.112Z,46.75
2023-01-07T23:05:59.668Z,41.80
2023-01-07T23:08:27.216Z,49.17
2023-01-07T23:10:54.703Z,49.25
2023-01-07T23:13:22.766Z,50.28
2023-01-07T23:15:50.261Z,47.72
2023-01-07T23:18:17.723Z,47.55
2023-01-07T23:20:45.414Z,42.47
2023-01-07T23:23:13.019Z,44.90
2023-01-07T23:25:48.034Z,48.38
2023-01-07T23:28:17.152Z,44.33
2023-01-07T23:30:44.695Z,40.53
2023-01-07T23:33:12.188Z,55.22
2023-01-07T23:35:39.846Z,63.47
2023-01-07T23:38:07.334Z,47.75
2023-01-07T23:40:34.840Z,57.63
2023-01-07T23:43:03.490Z,48.33
2023-01-07T23:45:30.996Z,61.28
2023-01-07T23:47:58.414Z,52.35
2023-01-07T23:50:25.886Z,51.08
2023-01-07T23:52:53.301Z,48.92
2023-01-07T23:55:20.731Z,43.92
2023-01-07T23:57:48.141Z,53.95
